Share

Pago Pago, AS

Hilo International (PHTO) Elev 36 ft | 19.72 °N, 155.05 °W | Change Station

Current weather conditions updated 56 minutes ago

Scattered Clouds
Scattered Clouds
69 °F
Feels Like 69 °F
N
6
Wind Variable Wind from WSW
Sunrise 6:30 AM
Sunset 6:12 PM
Moon Waning Gibbous

Today is forecast to be nearly the same temperature as yesterday. Scattered thunderstorms possible.

Pressure 30.11 in
Visibility 10.0 miles
Clouds Few 2600 ft
Scattered Clouds 3300 ft
Dew Point 66 °F
Humidity 90%
Rainfall 0.00 in
Snow Depth Not available.
UV 0 out of 16
Pollen Not available.
Air Quality Not available.
Flu Activity
METAR PHTO 201153Z 25005KT 10SM FEW026 SCT033 21/19 A3012 RMK AO2 RAB24E36 SLP196 P0000 60008 70039 T02060189 10217 20200 56006

More Conditions Fewer Conditions

Pressure 30.11 in
Visibility 10.0 miles
Clouds Few 2600 ft
Scattered Clouds 3300 ft
Dew Point 66 °F
Humidity 90%
Rainfall 0.00 in
Snow Depth Not available.
UV 0 out of 16
Pollen Not available.
Air Quality Not available.
Flu Activity
METAR PHTO 201153Z 25005KT 10SM FEW026 SCT033 21/19 A3012 RMK AO2 RAB24E36 SLP196 P0000 60008 70039 T02060189 10217 20200 56006

More Conditions Fewer Conditions

10-Day Weather Forecast

Almanac

Astronomy

Apr. 20, 2014 Rise Set
Actual Time 6:30 AM SST 6:12 PM SST
Civil Twilight 6:08 AM SST 6:34 PM SST
Nautical Twilight 5:43 AM SST 6:59 PM SST
Astronomical Twilight 5:18 AM SST 7:24 PM SST
Moon 11:29 PM SST 11:37 AM SST
Length of Visible Light 12h 26m
Length of Day
11h 42m
Tomorrow will be 0m 42s shorter.
Waning Gibbous, 70% of the Moon is Illuminated
Today
Waning Gibbous
Apr 22
Last Quarter
Apr 29
New
May 6
First Quarter
May 14
Full

Community

  • EARLY FOGGY MORNING
    EARLY FOGGY MORNING
  • Easter Greetings
    Easter Greetings
  • Sunny day at the coast-Cape Arago Lighthouse
    Sunny day at the coast-Cape Arago Lighthouse
  • Cherry Blossoms
    Cherry Blossoms
  • White-Crowned Sparrow
    White-Crowned Sparrow

WunderPhotos

Upload Photos

1,703,189 photos uploaded!

Nearby

Snow Depth

Station Depth Elevation
No new snow has been reported.

Coastal Water Temperatures

Place Temperature
No Stations Reporting

Earthquake Activity

City Distance Mag. Time & Date
No recent earthquake activity has been reported nearby.
Minimum magnitude displayed is 2.5.

Nearby Weather Stations

There are no personal weather stations in this area.

What do you think?

We're not finished. Please let us know what you like, what you don't like, and what you are still missing.